createdAt,value
2017-10-16T00:00:04.152Z,100.00
2017-10-16T00:01:10.533Z,100.00
2017-10-16T00:02:17.328Z,100.00
2017-10-16T00:03:25.845Z,100.00
2017-10-16T00:04:32.106Z,99.80
2017-10-16T00:05:38.472Z,99.78
2017-10-16T00:06:45.279Z,99.56
2017-10-16T00:07:51.463Z,99.10
2017-10-16T00:09:00.807Z,97.92
2017-10-16T00:10:07.088Z,97.77
2017-10-16T00:11:13.133Z,98.74
2017-10-16T00:12:19.995Z,98.99
2017-10-16T00:13:28.976Z,99.08
2017-10-16T00:14:34.977Z,98.83
2017-10-16T00:15:41.195Z,98.09
2017-10-16T00:16:47.380Z,97.27
2017-10-16T00:17:53.553Z,97.19
2017-10-16T00:19:00.772Z,97.40
2017-10-16T00:20:07.937Z,97.71
2017-10-16T00:21:14.193Z,98.13
2017-10-16T00:22:20.519Z,99.22
2017-10-16T00:23:27.013Z,98.98
2017-10-16T00:24:33.020Z,99.73
2017-10-16T00:25:39.898Z,99.11
2017-10-16T00:26:46.600Z,99.70
2017-10-16T00:27:56.553Z,99.41
2017-10-16T00:29:05.046Z,100.00
2017-10-16T00:30:11.193Z,100.00
2017-10-16T00:31:17.352Z,100.00
2017-10-16T00:32:24.164Z,100.00
2017-10-16T00:33:30.344Z,100.00
2017-10-16T00:34:35.682Z,100.00
2017-10-16T00:35:41.809Z,100.00
2017-10-16T00:36:48.036Z,100.00
2017-10-16T00:37:54.240Z,100.00
2017-10-16T00:39:00.465Z,100.00
2017-10-16T00:40:06.804Z,100.00
2017-10-16T00:41:13.336Z,100.00
2017-10-16T00:42:19.574Z,100.00
2017-10-16T00:43:26.508Z,100.00
2017-10-16T00:44:32.745Z,100.00
2017-10-16T00:45:38.766Z,100.00
2017-10-16T00:46:47.592Z,100.00
2017-10-16T00:47:55.029Z,100.00
2017-10-16T00:49:01.176Z,100.00
2017-10-16T00:50:07.885Z,100.00
2017-10-16T00:51:14.103Z,100.00
2017-10-16T00:52:24.022Z,100.00
2017-10-16T00:53:32.247Z,100.00
2017-10-16T00:54:38.445Z,100.00
2017-10-16T00:55:46.706Z,100.00
2017-10-16T00:56:52.209Z,100.00
2017-10-16T00:58:01.535Z,100.00
2017-10-16T00:59:08.114Z,100.00
2017-10-16T01:00:14.532Z,100.00
2017-10-16T01:01:20.575Z,100.00
2017-10-16T01:02:28.424Z,100.00
2017-10-16T01:03:36.316Z,100.00
2017-10-16T01:04:43.211Z,100.00
2017-10-16T01:05:49.446Z,100.00
2017-10-16T01:06:55.845Z,100.00
2017-10-16T01:08:01.957Z,100.00
2017-10-16T01:09:07.883Z,100.00
2017-10-16T01:10:14.189Z,100.00
2017-10-16T01:11:21.815Z,100.00
2017-10-16T01:12:27.995Z,100.00
2017-10-16T01:13:34.424Z,100.00
2017-10-16T01:14:40.863Z,100.00
2017-10-16T01:15:46.521Z,100.00
2017-10-16T01:16:53.466Z,100.00
2017-10-16T01:17:59.337Z,100.00
2017-10-16T01:19:04.915Z,100.00
2017-10-16T01:20:10.370Z,100.00
2017-10-16T01:21:16.584Z,100.00
2017-10-16T01:22:22.964Z,100.00
2017-10-16T01:23:28.392Z,100.00
2017-10-16T01:24:34.294Z,100.00
2017-10-16T01:25:40.362Z,100.00
2017-10-16T01:26:46.133Z,100.00
2017-10-16T01:27:52.281Z,100.00
2017-10-16T01:28:58.036Z,100.00
2017-10-16T01:30:03.308Z,100.00
2017-10-16T01:31:09.128Z,100.00
2017-10-16T01:32:15.046Z,100.00
2017-10-16T01:33:20.520Z,100.00
2017-10-16T01:34:26.135Z,100.00
2017-10-16T01:35:31.356Z,100.00
2017-10-16T01:36:37.299Z,100.00
2017-10-16T01:37:42.411Z,100.00
2017-10-16T01:38:47.943Z,100.00
2017-10-16T01:39:53.369Z,100.00
2017-10-16T01:40:58.825Z,100.00
2017-10-16T01:42:05.105Z,100.00
2017-10-16T01:43:10.929Z,100.00
2017-10-16T01:44:16.735Z,100.00
2017-10-16T01:45:22.265Z,100.00
2017-10-16T01:46:27.908Z,100.00
2017-10-16T01:47:33.974Z,100.00
2017-10-16T01:48:40.094Z,100.00
2017-10-16T01:49:46.483Z,100.00
2017-10-16T01:50:52.722Z,100.00
2017-10-16T01:51:58.383Z,100.00
2017-10-16T01:53:04.867Z,100.00
2017-10-16T01:54:14.248Z,100.00
2017-10-16T01:55:20.733Z,100.00
2017-10-16T01:56:26.712Z,100.00
2017-10-16T01:57:32.359Z,100.00
2017-10-16T01:58:37.719Z,100.00
2017-10-16T01:59:43.233Z,100.00
2017-10-16T02:00:50.155Z,100.00
2017-10-16T02:01:56.248Z,100.00
2017-10-16T02:03:02.521Z,100.00
2017-10-16T02:04:08.091Z,100.00
2017-10-16T02:05:13.938Z,100.00
2017-10-16T02:06:20.067Z,100.00
2017-10-16T02:07:26.340Z,100.00
2017-10-16T02:08:33.406Z,100.00
2017-10-16T02:09:39.792Z,100.00
2017-10-16T02:10:46.424Z,100.00
2017-10-16T02:11:52.623Z,100.00
2017-10-16T02:12:58.824Z,100.00
2017-10-16T02:14:05.468Z,100.00
2017-10-16T02:15:14.272Z,100.00
2017-10-16T02:16:20.551Z,100.00
2017-10-16T02:17:26.881Z,100.00
2017-10-16T02:18:35.326Z,100.00
2017-10-16T02:19:41.748Z,100.00
2017-10-16T02:20:48.144Z,100.00
2017-10-16T02:21:54.965Z,100.00
2017-10-16T02:23:01.641Z,100.00
2017-10-16T02:24:07.662Z,100.00
2017-10-16T02:25:13.949Z,100.00
2017-10-16T02:26:21.027Z,100.00
2017-10-16T02:27:27.198Z,100.00
2017-10-16T02:28:36.497Z,100.00
2017-10-16T02:29:43.192Z,100.00
2017-10-16T02:30:49.426Z,100.00
2017-10-16T02:31:55.676Z,100.00
2017-10-16T02:33:02.204Z,100.00
2017-10-16T02:34:08.373Z,100.00
2017-10-16T02:35:14.956Z,100.00
2017-10-16T02:36:22.470Z,100.00
2017-10-16T02:37:28.782Z,100.00
2017-10-16T02:38:34.960Z,100.00
2017-10-16T02:39:41.176Z,100.00
2017-10-16T02:40:47.368Z,100.00
2017-10-16T02:41:53.606Z,100.00
2017-10-16T02:43:00.137Z,100.00
2017-10-16T02:44:06.705Z,100.00
2017-10-16T02:45:13.152Z,100.00
2017-10-16T02:46:19.349Z,100.00
2017-10-16T02:47:25.652Z,100.00
2017-10-16T02:48:31.778Z,100.00
2017-10-16T02:49:37.777Z,100.00
2017-10-16T02:50:44.200Z,100.00
2017-10-16T02:51:50.219Z,100.00
2017-10-16T02:52:56.595Z,100.00
2017-10-16T02:54:02.713Z,100.00
2017-10-16T02:55:09.162Z,100.00
2017-10-16T02:56:15.371Z,100.00
2017-10-16T02:57:21.664Z,100.00
2017-10-16T02:58:27.883Z,100.00
2017-10-16T02:59:34.390Z,100.00
2017-10-16T03:00:40.825Z,100.00
2017-10-16T03:01:47.297Z,100.00
2017-10-16T03:02:53.524Z,100.00
2017-10-16T03:03:59.745Z,100.00
2017-10-16T03:05:06.074Z,100.00
2017-10-16T03:06:12.337Z,100.00
2017-10-16T03:07:20.402Z,100.00
2017-10-16T03:08:26.383Z,100.00
2017-10-16T03:09:32.651Z,100.00
2017-10-16T03:10:38.933Z,100.00
2017-10-16T03:11:44.930Z,100.00
2017-10-16T03:12:51.127Z,100.00
2017-10-16T03:13:57.870Z,100.00
2017-10-16T03:15:03.919Z,100.00
2017-10-16T03:16:09.985Z,100.00
2017-10-16T03:17:16.195Z,100.00
2017-10-16T03:18:22.836Z,100.00
2017-10-16T03:19:29.664Z,100.00
2017-10-16T03:20:35.949Z,100.00
2017-10-16T03:21:44.140Z,100.00
2017-10-16T03:22:50.395Z,100.00
2017-10-16T03:23:56.620Z,100.00
2017-10-16T03:25:03.424Z,100.00
2017-10-16T03:26:09.721Z,100.00
2017-10-16T03:27:15.932Z,100.00
2017-10-16T03:28:22.313Z,100.00
2017-10-16T03:29:28.432Z,100.00
2017-10-16T03:30:34.414Z,100.00
2017-10-16T03:31:40.596Z,100.00
2017-10-16T03:32:46.696Z,100.00
2017-10-16T03:33:53.623Z,100.00
2017-10-16T03:35:00.335Z,100.00
2017-10-16T03:36:06.841Z,100.00
2017-10-16T03:37:13.261Z,100.00
2017-10-16T03:38:21.129Z,100.00
2017-10-16T03:39:27.758Z,100.00
2017-10-16T03:40:34.094Z,100.00
2017-10-16T03:41:42.125Z,100.00
2017-10-16T03:42:48.726Z,100.00
2017-10-16T03:43:57.573Z,100.00
2017-10-16T03:45:06.173Z,100.00
2017-10-16T03:46:12.386Z,100.00
2017-10-16T03:47:18.595Z,100.00
2017-10-16T03:48:25.112Z,100.00
2017-10-16T03:49:31.814Z,100.00
2017-10-16T03:50:48.087Z,100.00
2017-10-16T03:51:57.653Z,100.00
2017-10-16T03:53:03.855Z,100.00
2017-10-16T03:54:10.240Z,100.00
2017-10-16T03:55:16.334Z,100.00
2017-10-16T03:56:22.728Z,100.00
2017-10-16T03:57:32.171Z,100.00
2017-10-16T03:58:39.050Z,100.00
2017-10-16T03:59:45.977Z,100.00
2017-10-16T04:00:52.513Z,100.00
2017-10-16T04:01:59.831Z,100.00
2017-10-16T04:03:08.451Z,100.00
2017-10-16T04:04:15.357Z,100.00
2017-10-16T04:05:21.905Z,100.00
2017-10-16T04:06:28.837Z,100.00
2017-10-16T04:07:36.675Z,100.00
2017-10-16T04:08:42.896Z,100.00
2017-10-16T04:09:48.982Z,100.00
2017-10-16T04:10:55.853Z,100.00
2017-10-16T04:12:02.511Z,100.00
2017-10-16T04:13:10.213Z,100.00
2017-10-16T04:14:16.322Z,100.00
2017-10-16T04:15:22.705Z,100.00
2017-10-16T04:16:30.551Z,100.00
2017-10-16T04:17:37.938Z,100.00
2017-10-16T04:18:45.064Z,100.00
2017-10-16T04:19:51.427Z,100.00
2017-10-16T04:20:57.732Z,100.00
2017-10-16T04:22:04.653Z,100.00
2017-10-16T04:23:11.193Z,100.00
2017-10-16T04:24:17.405Z,100.00
2017-10-16T04:25:24.475Z,100.00
2017-10-16T04:26:30.599Z,100.00
2017-10-16T04:27:40.442Z,100.00
2017-10-16T04:28:52.439Z,100.00
2017-10-16T04:30:06.858Z,100.00
2017-10-16T04:31:15.598Z,100.00
2017-10-16T04:32:22.863Z,100.00
2017-10-16T04:33:29.981Z,100.00
2017-10-16T04:34:37.121Z,100.00
2017-10-16T04:35:43.357Z,100.00
2017-10-16T04:36:50.063Z,100.00
2017-10-16T04:37:56.700Z,100.00
2017-10-16T04:39:03.519Z,100.00
2017-10-16T04:40:10.814Z,100.00
2017-10-16T04:41:17.718Z,100.00
2017-10-16T04:42:27.657Z,100.00
2017-10-16T04:43:34.340Z,100.00
2017-10-16T04:44:40.890Z,100.00
2017-10-16T04:45:46.885Z,100.00
2017-10-16T04:46:53.872Z,100.00
2017-10-16T04:48:00.853Z,100.00
2017-10-16T04:49:06.609Z,100.00
2017-10-16T04:50:13.500Z,100.00
2017-10-16T04:51:19.969Z,100.00
2017-10-16T04:52:26.185Z,100.00
2017-10-16T04:53:32.189Z,100.00
2017-10-16T04:54:38.382Z,100.00
2017-10-16T04:55:45.014Z,100.00
2017-10-16T04:56:52.181Z,100.00
2017-10-16T04:57:58.405Z,100.00
2017-10-16T04:59:04.621Z,100.00
2017-10-16T05:00:10.589Z,100.00
2017-10-16T05:01:17.618Z,100.00
2017-10-16T05:02:23.790Z,100.00
2017-10-16T05:03:30.264Z,100.00
2017-10-16T05:04:36.635Z,100.00
2017-10-16T05:05:45.011Z,100.00
2017-10-16T05:06:54.084Z,100.00
2017-10-16T05:08:01.063Z,100.00
2017-10-16T05:09:08.369Z,100.00
2017-10-16T05:10:14.267Z,100.00
2017-10-16T05:11:25.057Z,100.00
2017-10-16T05:12:31.240Z,100.00
2017-10-16T05:13:38.357Z,100.00
2017-10-16T05:14:44.589Z,100.00
2017-10-16T05:15:56.274Z,100.00
2017-10-16T05:17:06.138Z,100.00
2017-10-16T05:18:12.323Z,100.00
2017-10-16T05:19:18.698Z,100.00
2017-10-16T05:20:26.078Z,100.00
2017-10-16T05:21:34.714Z,100.00
2017-10-16T05:22:41.788Z,100.00
2017-10-16T05:23:48.981Z,100.00
2017-10-16T05:24:55.254Z,100.00
2017-10-16T05:26:01.583Z,100.00
2017-10-16T05:27:09.477Z,100.00
2017-10-16T05:28:16.172Z,100.00
2017-10-16T05:29:22.669Z,100.00
2017-10-16T05:30:29.649Z,100.00
2017-10-16T05:31:37.260Z,100.00
2017-10-16T05:32:43.536Z,100.00
2017-10-16T05:33:49.791Z,100.00
2017-10-16T05:34:56.952Z,100.00
2017-10-16T05:36:03.242Z,100.00
2017-10-16T05:37:09.049Z,100.00
2017-10-16T05:38:15.250Z,100.00
2017-10-16T05:39:21.639Z,100.00
2017-10-16T05:40:28.715Z,100.00
2017-10-16T05:41:35.807Z,100.00
2017-10-16T05:42:42.002Z,100.00
2017-10-16T05:43:48.201Z,100.00
2017-10-16T05:44:55.307Z,100.00
2017-10-16T05:46:00.737Z,100.00
2017-10-16T05:47:06.722Z,100.00
2017-10-16T05:48:14.096Z,100.00
2017-10-16T05:49:20.243Z,100.00
2017-10-16T05:50:26.882Z,100.00
2017-10-16T05:51:33.151Z,100.00
2017-10-16T05:52:39.580Z,100.00
2017-10-16T05:53:46.720Z,100.00
2017-10-16T05:54:53.718Z,100.00
2017-10-16T05:56:00.768Z,100.00
2017-10-16T05:57:06.978Z,100.00
2017-10-16T05:58:13.291Z,100.00
2017-10-16T05:59:20.700Z,100.00
2017-10-16T06:00:27.047Z,100.00
2017-10-16T06:03:04.440Z,100.00
2017-10-16T06:04:10.644Z,100.00
2017-10-16T06:05:16.116Z,100.00
2017-10-16T06:06:21.634Z,100.00
2017-10-16T06:07:26.815Z,100.00
2017-10-16T06:08:32.176Z,100.00
2017-10-16T06:09:37.656Z,100.00
2017-10-16T06:10:43.727Z,100.00
2017-10-16T06:11:50.343Z,100.00
2017-10-16T06:12:56.204Z,100.00
2017-10-16T06:14:02.337Z,100.00
2017-10-16T06:15:08.487Z,100.00
2017-10-16T06:16:14.535Z,100.00
2017-10-16T06:17:19.945Z,100.00
2017-10-16T06:18:25.552Z,100.00
2017-10-16T06:19:31.706Z,100.00
2017-10-16T06:20:41.281Z,100.00
2017-10-16T06:21:47.510Z,100.00
2017-10-16T06:22:53.240Z,100.00
2017-10-16T06:24:01.027Z,100.00
2017-10-16T06:25:07.027Z,100.00
2017-10-16T06:26:12.703Z,100.00
2017-10-16T06:27:18.801Z,100.00
2017-10-16T06:28:25.201Z,100.00
2017-10-16T06:29:31.383Z,100.00
2017-10-16T06:30:37.293Z,100.00
2017-10-16T06:31:43.299Z,100.00
2017-10-16T06:32:50.537Z,100.00
2017-10-16T06:33:56.927Z,100.00
2017-10-16T06:35:03.331Z,100.00
2017-10-16T06:36:09.203Z,100.00
2017-10-16T06:37:15.592Z,100.00
2017-10-16T06:38:24.231Z,100.00
2017-10-16T06:39:31.067Z,100.00
2017-10-16T06:40:38.191Z,100.00
2017-10-16T06:41:44.409Z,100.00
2017-10-16T06:42:50.280Z,100.00
2017-10-16T06:43:56.132Z,100.00
2017-10-16T06:45:02.293Z,100.00
2017-10-16T06:46:09.188Z,100.00
2017-10-16T06:47:14.731Z,100.00
2017-10-16T06:48:24.293Z,100.00
2017-10-16T06:49:30.507Z,100.00
2017-10-16T06:50:37.354Z,100.00
2017-10-16T06:51:43.541Z,100.00
2017-10-16T06:52:50.809Z,100.00
2017-10-16T06:53:57.009Z,100.00
2017-10-16T06:55:03.104Z,100.00
2017-10-16T06:56:10.211Z,100.00
2017-10-16T06:57:16.222Z,100.00
2017-10-16T06:58:22.697Z,100.00
2017-10-16T06:59:29.200Z,100.00
2017-10-16T07:00:35.388Z,100.00
2017-10-16T07:01:41.593Z,100.00
2017-10-16T07:02:47.847Z,100.00
2017-10-16T07:03:53.912Z,100.00
2017-10-16T07:04:59.980Z,100.00
2017-10-16T07:06:06.320Z,100.00
2017-10-16T07:07:12.523Z,100.00
2017-10-16T07:08:18.861Z,100.00
2017-10-16T07:09:25.069Z,100.00
2017-10-16T07:10:31.895Z,100.00
2017-10-16T07:11:38.080Z,100.00
2017-10-16T07:12:44.413Z,100.00
2017-10-16T07:13:50.408Z,100.00
2017-10-16T07:14:56.773Z,100.00
2017-10-16T07:16:06.385Z,100.00
2017-10-16T07:17:12.606Z,100.00
2017-10-16T07:18:19.093Z,100.00
2017-10-16T07:19:25.337Z,100.00
2017-10-16T07:20:32.264Z,100.00
2017-10-16T07:21:38.910Z,99.86
2017-10-16T07:22:45.523Z,99.41
2017-10-16T07:23:51.845Z,98.76
2017-10-16T07:24:58.056Z,98.53
2017-10-16T07:26:04.234Z,98.11
2017-10-16T07:27:12.070Z,97.71
2017-10-16T07:28:18.395Z,97.24
2017-10-16T07:29:24.505Z,96.95
2017-10-16T07:30:30.983Z,96.27
2017-10-16T07:31:37.662Z,95.85
2017-10-16T07:32:45.058Z,95.95
2017-10-16T07:33:51.372Z,96.13
2017-10-16T07:34:57.890Z,95.44
2017-10-16T07:36:04.201Z,95.11
2017-10-16T07:37:10.491Z,94.72
2017-10-16T07:38:16.565Z,94.30
2017-10-16T07:39:23.845Z,94.04
2017-10-16T07:40:29.873Z,93.54
2017-10-16T07:41:38.856Z,93.35
2017-10-16T07:42:45.168Z,92.60
2017-10-16T07:43:51.326Z,92.16
2017-10-16T07:44:57.474Z,92.26
2017-10-16T07:46:03.655Z,92.75
2017-10-16T07:47:09.811Z,92.95
2017-10-16T07:48:17.539Z,92.54
2017-10-16T07:49:23.649Z,92.47
2017-10-16T07:50:29.886Z,92.26
2017-10-16T07:51:36.622Z,92.47
2017-10-16T07:52:42.799Z,92.38
2017-10-16T07:53:49.094Z,91.75
2017-10-16T07:54:55.461Z,91.47
2017-10-16T07:56:01.700Z,91.69
2017-10-16T07:57:09.424Z,91.10
2017-10-16T07:58:15.716Z,91.03
2017-10-16T07:59:22.210Z,90.31
2017-10-16T08:00:28.384Z,90.57
2017-10-16T08:01:34.720Z,90.43
2017-10-16T08:02:41.856Z,89.89
2017-10-16T08:03:47.991Z,90.10
2017-10-16T08:04:54.145Z,89.15
2017-10-16T08:06:00.652Z,89.23
2017-10-16T08:07:06.501Z,89.40
2017-10-16T08:08:12.712Z,88.43
2017-10-16T08:09:18.996Z,88.34
2017-10-16T08:10:31.439Z,88.65
2017-10-16T08:11:38.571Z,87.79
2017-10-16T08:12:44.827Z,86.27
2017-10-16T08:13:51.189Z,85.23
2017-10-16T08:14:57.594Z,84.92
2017-10-16T08:16:03.941Z,85.13
2017-10-16T08:17:09.954Z,84.20
2017-10-16T08:18:16.156Z,83.75
2017-10-16T08:19:21.845Z,83.41
2017-10-16T08:20:28.063Z,82.86
2017-10-16T08:21:34.234Z,82.88
2017-10-16T08:22:39.743Z,83.21
2017-10-16T08:23:47.199Z,82.93
2017-10-16T08:24:53.124Z,81.48
2017-10-16T08:25:58.597Z,80.71
2017-10-16T08:27:04.847Z,80.88
2017-10-16T08:28:11.174Z,81.77
2017-10-16T08:29:17.406Z,81.45
2017-10-16T08:30:22.985Z,80.89
2017-10-16T08:31:28.392Z,81.57
2017-10-16T08:32:34.009Z,81.91
2017-10-16T08:33:39.604Z,82.11
2017-10-16T08:34:46.467Z,82.49
2017-10-16T08:35:52.782Z,82.84
2017-10-16T08:36:58.253Z,83.42
2017-10-16T08:38:03.733Z,83.00
2017-10-16T08:39:09.724Z,83.15
2017-10-16T08:40:15.729Z,83.70
2017-10-16T08:41:22.684Z,83.11
2017-10-16T08:42:28.033Z,83.90
2017-10-16T08:43:34.385Z,82.58
2017-10-16T08:44:40.133Z,82.95
2017-10-16T08:45:46.107Z,82.98
2017-10-16T08:46:54.272Z,82.48
2017-10-16T08:48:00.511Z,82.22
2017-10-16T08:49:06.373Z,80.97
2017-10-16T08:50:11.797Z,81.11
2017-10-16T08:51:17.298Z,80.07
2017-10-16T08:52:22.878Z,80.34
2017-10-16T08:53:28.300Z,80.78
2017-10-16T08:54:34.536Z,81.29
2017-10-16T08:55:39.969Z,82.01
2017-10-16T08:56:46.345Z,82.02
2017-10-16T08:57:51.812Z,82.12
2017-10-16T08:58:59.733Z,82.14
2017-10-16T09:00:06.550Z,81.93
2017-10-16T09:01:12.321Z,81.86
2017-10-16T09:02:18.616Z,80.43
2017-10-16T09:03:24.053Z,80.98
2017-10-16T09:04:30.633Z,80.87
2017-10-16T09:05:37.052Z,80.80
2017-10-16T09:06:43.745Z,80.91
2017-10-16T09:07:49.930Z,80.31
2017-10-16T09:08:55.172Z,79.91
2017-10-16T09:10:01.028Z,78.98
2017-10-16T09:11:14.976Z,79.85
2017-10-16T09:12:26.182Z,79.83
2017-10-16T09:13:31.912Z,79.97
2017-10-16T09:14:38.801Z,79.73
2017-10-16T09:15:44.303Z,79.43
2017-10-16T09:16:51.520Z,79.59
2017-10-16T09:17:58.229Z,79.04
2017-10-16T09:19:06.495Z,78.95
2017-10-16T09:20:12.579Z,78.12
2017-10-16T09:21:18.610Z,78.94
2017-10-16T09:22:24.088Z,78.31
2017-10-16T09:23:30.557Z,78.66
2017-10-16T09:24:36.171Z,77.62
2017-10-16T09:25:43.130Z,77.37
2017-10-16T09:26:48.848Z,77.15
2017-10-16T09:27:54.828Z,77.31
2017-10-16T09:29:01.975Z,77.25
2017-10-16T09:30:09.854Z,77.50
2017-10-16T09:31:21.556Z,77.79
2017-10-16T09:32:33.196Z,76.87
2017-10-16T09:33:43.230Z,77.29
2017-10-16T09:34:54.442Z,76.72
2017-10-16T09:36:02.362Z,76.77
2017-10-16T09:37:08.694Z,75.40
2017-10-16T09:38:16.397Z,75.65
2017-10-16T09:39:23.892Z,74.51
2017-10-16T09:40:29.435Z,75.12
2017-10-16T09:41:34.910Z,75.37
2017-10-16T09:42:41.357Z,74.97
2017-10-16T09:43:47.508Z,74.57
2017-10-16T09:44:53.083Z,74.13
2017-10-16T09:45:59.063Z,74.28
2017-10-16T09:47:05.277Z,74.50
2017-10-16T09:48:11.855Z,74.16
2017-10-16T09:49:17.521Z,74.86
2017-10-16T09:50:24.201Z,74.97
2017-10-16T09:51:30.013Z,74.73
2017-10-16T09:52:36.689Z,73.96
2017-10-16T09:53:43.537Z,74.29
2017-10-16T09:54:49.430Z,73.76
2017-10-16T09:55:55.454Z,73.56
2017-10-16T09:57:01.344Z,72.87
2017-10-16T09:58:07.171Z,72.95
2017-10-16T09:59:12.969Z,73.44
2017-10-16T10:00:19.685Z,73.46
2017-10-16T10:01:29.391Z,73.17
2017-10-16T10:02:37.522Z,72.59
2017-10-16T10:03:43.743Z,72.32
2017-10-16T10:04:54.236Z,71.68
2017-10-16T10:10:11.546Z,71.20
2017-10-16T10:11:21.001Z,70.81
2017-10-16T10:12:31.379Z,69.88
2017-10-16T10:13:39.008Z,71.05
2017-10-16T10:14:45.529Z,70.42
2017-10-16T10:15:52.147Z,69.98
2017-10-16T10:16:58.464Z,69.57
2017-10-16T10:18:05.248Z,69.66
2017-10-16T10:19:11.796Z,69.06
2017-10-16T10:20:17.950Z,69.97
2017-10-16T10:21:24.045Z,69.18
2017-10-16T10:22:30.630Z,69.13
2017-10-16T10:23:37.558Z,68.91
2017-10-16T10:24:44.137Z,68.41
2017-10-16T10:25:51.101Z,68.61
2017-10-16T10:26:57.842Z,68.97
2017-10-16T10:28:05.353Z,66.82
2017-10-16T10:29:11.492Z,66.32
2017-10-16T10:30:17.668Z,66.56
2017-10-16T10:31:24.370Z,65.78
2017-10-16T10:32:30.554Z,65.46
2017-10-16T10:33:36.708Z,65.11
2017-10-16T10:34:53.121Z,64.54
2017-10-16T10:35:59.264Z,63.99
2017-10-16T10:37:05.433Z,61.26
2017-10-16T10:38:11.669Z,59.97
2017-10-16T10:39:18.334Z,60.59
2017-10-16T10:40:26.422Z,60.88
2017-10-16T10:41:32.893Z,61.18
2017-10-16T10:42:39.087Z,59.25
2017-10-16T10:44:04.654Z,58.20
2017-10-16T10:45:17.597Z,58.91
2017-10-16T10:46:24.340Z,58.41
2017-10-16T10:47:35.542Z,56.53
2017-10-16T10:48:42.045Z,58.83
2017-10-16T10:49:48.371Z,59.09
2017-10-16T10:50:58.883Z,61.27
2017-10-16T10:52:06.432Z,61.75
2017-10-16T10:53:13.246Z,62.97
2017-10-16T10:54:20.086Z,64.38
2017-10-16T10:55:27.544Z,64.75
2017-10-16T10:56:35.426Z,64.38
2017-10-16T10:57:44.015Z,65.44
2017-10-16T10:58:53.454Z,65.09
2017-10-16T11:00:00.239Z,64.67
2017-10-16T11:01:10.130Z,65.01
2017-10-16T11:02:16.728Z,64.33
2017-10-16T11:03:23.154Z,64.95
2017-10-16T11:04:29.978Z,63.77
2017-10-16T11:05:38.130Z,63.80
2017-10-16T11:06:45.150Z,63.31
2017-10-16T11:07:51.892Z,62.82
2017-10-16T11:08:58.360Z,62.54
2017-10-16T11:10:04.056Z,62.91
2017-10-16T11:11:10.359Z,63.03
2017-10-16T11:12:16.956Z,64.27
2017-10-16T11:13:23.420Z,63.68
2017-10-16T11:14:30.579Z,64.04
2017-10-16T11:15:37.206Z,64.92
2017-10-16T11:16:45.562Z,64.81
2017-10-16T11:17:51.558Z,64.12
2017-10-16T11:18:58.887Z,64.53
2017-10-16T11:20:04.895Z,63.35
2017-10-16T11:21:10.183Z,63.92
2017-10-16T11:22:16.708Z,63.73
2017-10-16T11:23:22.992Z,64.21
2017-10-16T11:24:31.267Z,64.48
2017-10-16T11:25:38.303Z,62.89
2017-10-16T11:26:44.163Z,63.40
2017-10-16T11:27:51.513Z,63.09
2017-10-16T11:28:57.068Z,63.07
2017-10-16T11:30:04.193Z,63.29
2017-10-16T11:31:11.812Z,63.00
2017-10-16T11:32:20.187Z,63.36
2017-10-16T11:33:28.488Z,64.01
2017-10-16T11:34:35.427Z,63.44
2017-10-16T11:35:42.804Z,63.48
2017-10-16T11:36:49.951Z,63.23
2017-10-16T11:37:57.449Z,62.32
2017-10-16T11:39:03.454Z,62.08
2017-10-16T11:40:09.149Z,62.48
2017-10-16T11:41:16.465Z,61.24
2017-10-16T11:42:21.966Z,61.02
2017-10-16T11:43:27.465Z,61.38
2017-10-16T11:44:35.356Z,60.77
2017-10-16T11:45:42.269Z,60.23
2017-10-16T11:46:48.536Z,60.41
2017-10-16T11:47:55.899Z,59.87
2017-10-16T11:49:04.419Z,59.28
2017-10-16T11:50:13.615Z,58.45
2017-10-16T11:51:20.532Z,58.02
2017-10-16T11:52:27.332Z,58.26
2017-10-16T11:53:38.204Z,58.20
2017-10-16T11:54:44.715Z,57.77
2017-10-16T11:55:50.467Z,57.08
2017-10-16T11:56:58.384Z,57.89
2017-10-16T11:58:04.375Z,57.38
2017-10-16T11:59:11.599Z,57.33
2017-10-16T12:00:18.410Z,56.99
2017-10-16T12:01:24.795Z,57.10
2017-10-16T12:02:30.664Z,55.82
2017-10-16T12:03:36.085Z,56.31
2017-10-16T12:04:42.706Z,56.08
2017-10-16T12:05:48.200Z,56.57
2017-10-16T12:06:54.650Z,56.56
2017-10-16T12:08:00.648Z,56.91
2017-10-16T12:09:07.673Z,56.80
2017-10-16T12:10:13.393Z,56.92
2017-10-16T12:11:21.646Z,56.19
2017-10-16T12:12:28.680Z,56.08
2017-10-16T12:13:34.776Z,56.47
2017-10-16T12:14:41.732Z,56.35
2017-10-16T12:15:47.769Z,56.56
2017-10-16T12:16:59.192Z,56.56
2017-10-16T12:18:14.909Z,56.68
2017-10-16T12:19:21.210Z,56.92
2017-10-16T12:20:29.877Z,56.16
2017-10-16T12:21:35.236Z,56.41
2017-10-16T12:22:40.771Z,56.68
2017-10-16T12:23:47.117Z,56.74
2017-10-16T12:24:52.568Z,56.08
2017-10-16T12:25:58.041Z,56.43
2017-10-16T12:27:04.010Z,56.28
2017-10-16T12:28:09.244Z,56.37
2017-10-16T12:29:15.144Z,56.16
2017-10-16T12:30:20.557Z,55.78
2017-10-16T12:31:26.612Z,56.43
2017-10-16T12:32:32.054Z,55.77
2017-10-16T12:33:37.351Z,55.42
2017-10-16T12:34:42.845Z,55.71
2017-10-16T12:35:48.378Z,55.95
2017-10-16T12:36:53.719Z,56.73
2017-10-16T12:37:59.231Z,56.04
2017-10-16T12:39:04.623Z,56.19
2017-10-16T12:40:10.054Z,56.36
2017-10-16T12:41:15.407Z,55.61
2017-10-16T12:42:22.771Z,54.83
2017-10-16T12:43:28.189Z,55.43
2017-10-16T12:44:33.440Z,55.35
2017-10-16T12:45:39.549Z,55.42
2017-10-16T12:46:44.806Z,54.39
2017-10-16T12:47:50.427Z,53.08
2017-10-16T12:48:56.117Z,52.55
2017-10-16T12:50:01.545Z,53.51
2017-10-16T12:51:06.992Z,53.68
2017-10-16T12:52:12.593Z,52.30
2017-10-16T12:53:18.077Z,51.70
2017-10-16T12:54:23.954Z,51.29
2017-10-16T12:55:29.600Z,49.63
2017-10-16T12:56:35.117Z,50.19
2017-10-16T12:57:40.332Z,50.92
2017-10-16T12:58:45.549Z,50.37
2017-10-16T12:59:50.904Z,48.70
2017-10-16T13:00:58.523Z,49.22
2017-10-16T13:02:04.243Z,50.40
2017-10-16T13:03:09.456Z,51.77
2017-10-16T13:04:17.301Z,50.70
2017-10-16T13:05:26.943Z,50.70
2017-10-16T13:06:32.618Z,48.97
2017-10-16T13:07:38.500Z,48.72
2017-10-16T13:08:43.936Z,47.85
2017-10-16T13:09:49.677Z,48.37
2017-10-16T13:10:55.412Z,49.51
2017-10-16T13:12:00.369Z,48.63
2017-10-16T13:13:05.542Z,48.59
2017-10-16T13:14:10.750Z,48.61
2017-10-16T13:15:16.292Z,49.51
2017-10-16T13:16:21.248Z,49.78
2017-10-16T13:17:26.320Z,49.93
2017-10-16T13:18:31.729Z,49.74
2017-10-16T13:19:37.197Z,47.14
2017-10-16T13:20:42.722Z,46.11
2017-10-16T13:21:47.709Z,47.77
2017-10-16T13:22:54.162Z,48.21
2017-10-16T13:23:59.961Z,49.96
2017-10-16T13:25:05.473Z,48.68
2017-10-16T13:26:10.493Z,48.27
2017-10-16T13:27:15.457Z,47.04
2017-10-16T13:28:20.743Z,46.99
2017-10-16T13:29:25.714Z,45.83
2017-10-16T13:30:32.423Z,45.41
2017-10-16T13:31:38.093Z,45.42
2017-10-16T13:32:43.109Z,43.71
2017-10-16T13:33:48.291Z,45.56
2017-10-16T13:34:53.522Z,46.60
2017-10-16T13:35:58.689Z,44.89
2017-10-16T13:37:03.665Z,44.96
2017-10-16T13:38:10.292Z,43.93
2017-10-16T13:39:15.357Z,45.70
2017-10-16T13:40:20.189Z,45.35
2017-10-16T13:41:26.018Z,46.24
2017-10-16T13:42:32.123Z,45.90
2017-10-16T13:43:37.902Z,45.72
2017-10-16T13:44:43.800Z,46.78
2017-10-16T13:45:49.793Z,44.89
2017-10-16T13:46:55.297Z,44.98
2017-10-16T13:48:00.948Z,44.53
2017-10-16T13:49:06.109Z,46.88
2017-10-16T13:50:11.313Z,46.30
2017-10-16T13:51:17.968Z,45.48
2017-10-16T13:52:23.340Z,46.64
2017-10-16T13:53:28.835Z,46.76
2017-10-16T13:54:33.906Z,46.25
2017-10-16T13:55:38.801Z,44.64
2017-10-16T13:56:44.017Z,45.47
2017-10-16T13:57:49.246Z,46.97
2017-10-16T13:58:54.251Z,46.21
2017-10-16T13:59:59.216Z,44.60
2017-10-16T14:01:05.008Z,45.57
2017-10-16T14:02:10.636Z,46.54
2017-10-16T14:03:15.713Z,46.74
2017-10-16T14:04:21.865Z,46.83
2017-10-16T14:05:27.130Z,47.20
2017-10-16T14:06:33.009Z,46.12
2017-10-16T14:07:38.707Z,45.17
2017-10-16T14:08:43.488Z,45.75
2017-10-16T14:09:49.489Z,47.47